Bojnourd, Iran

10:03 AM IRDT on August 01, 2014 (GMT +0430)
Bojnord (OIMN) Elev 3524 ft | 37.49 °N, 57.30 °E | Change Station

Current weather conditions updated 33 minutes ago

Clear
Clear
73 °F
Feels Like 73 °F
N
0
Wind Variable Wind from North

Today is forecast to be nearly the same temperature as yesterday.

Today
High -- | Low -- °F
--% Chance of Precip.
Yesterday
High -- | Low -- °F
Precip. -- in
5:44 AM 7:48 PM
Waxing Crescent, 23% visible
Pressure 30.04 in
Visibility -9999.0 miles
Clouds
Dew Point 41 °F
Humidity 31%
Rainfall 0.00 in
Snow Depth Not available.
UV Not available.
Pollen Not available.
Air Quality Not available.
Flu Activity Not available.
METAR OIMN 010500Z 00000KT CAVOK 23/05 Q1017

More Conditions Fewer Conditions

Pressure 30.04 in
Visibility -9999.0 miles
Clouds
Dew Point 41 °F
Humidity 31%
Rainfall 0.00 in
Snow Depth Not available.
UV Not available.
Pollen Not available.
Air Quality Not available.
Flu Activity Not available.
METAR OIMN 010500Z 00000KT CAVOK 23/05 Q1017

More Conditions Fewer Conditions

10-Day Weather Forecast

Almanac

Astronomy

Aug. 01, 2014 Rise Set
Actual Time 5:44 AM IRDT 7:48 PM IRDT
Civil Twilight 5:15 AM IRDT 8:17 PM IRDT
Nautical Twilight 4:40 AM IRDT 8:53 PM IRDT
Astronomical Twilight 4:01 AM IRDT 9:31 PM IRDT
Moon 10:38 AM IRDT 10:28 PM IRDT
Length of Visible Light 15h 02m
Length of Day
14h 04m
Tomorrow will be 1m 48s shorter.
Waxing Crescent, 23% of the Moon is Illuminated
Today
Waxing Crescent
Aug 3
First Quarter
Aug 10
Full
Aug 17
Last Quarter
Aug 25
New

Yesterday's Extremes

Country Highs Country Lows

Community

WunderPhotos

Upload Photos

1,739,516 photos uploaded!

Nearby

Snow Depth

Not available.

Earthquake Activity

City Distance Mag. Time & Date
No recent earthquake activity has been reported nearby.
Minimum magnitude displayed is 2.5.

Coastal Water Temperatures

Place Temperature
No Stations Reporting

Nearby Weather Stations

There are no personal weather stations in this area.